PWSweather.com
Personal Weather Stations
Station Observations
WISCHPK61
Green Bay Schmitt Park, Green Bay, WI 54311

Green Bay Schmitt ParkGreen Bay, WI 54311

Lat: 44.514277, Lon: -87.935067

Elevation: 735

Station Type: Acu Rite Pro Weather Center model 02032C

http://greenbayweathercam.com

High Low Average
Temperature 42.3°F5.7°C 28.0°F-2.2°C 32.3°F0.2°C
Dew Point 42.0°F5.6°C 27.8°F-2.3°C 32.1°F0.1°C
Winds Calm Calm Calm Calm Calm SCalm S
Wind Gusts -- -- --
Humidity 99% 99% 99%
Pressure 29.02 in982.7 mb 28.95 in980.4 mb -
Precipitation 0.80 in20.3 mm - -
Hour Temp Dew Point Humidity Winds Wind Gusts Pressure Precip Precip Rate Daily Precip Total
12:00 AM 30.4°F-0.9°C 30.2°F-1.0°C 99% Calm Calm -- 29.01 in982.4 mb - 0.00 in0.0 mm 0.00 in0.0 mm
01:00 AM 30.2°F-1.0°C 30.0°F-1.1°C 99% Calm Calm -- 29.01 in982.4 mb - 0.00 in0.0 mm 0.00 in0.0 mm
02:00 AM 30.2°F-1.0°C 30.0°F-1.1°C 99% Calm Calm -- 29.00 in982.1 mb - 0.00 in0.0 mm 0.00 in0.0 mm
03:00 AM 30.6°F-0.8°C 30.4°F-0.9°C 99% Calm Calm -- 29.02 in982.7 mb - 0.00 in0.0 mm 0.00 in0.0 mm
04:00 AM 30.4°F-0.9°C 30.1°F-1.1°C 99% Calm Calm -- 29.00 in982.1 mb - 0.00 in0.0 mm 0.00 in0.0 mm
05:00 AM 29.8°F-1.2°C 29.6°F-1.3°C 99% Calm Calm -- 28.98 in981.4 mb - 0.00 in0.0 mm 0.00 in0.0 mm
06:00 AM 29.1°F-1.6°C 28.9°F-1.7°C 99% Calm Calm -- 28.97 in981.0 mb - 0.00 in0.0 mm 0.00 in0.0 mm
07:00 AM 28.4°F-2.0°C 28.2°F-2.1°C 99% Calm Calm -- 28.95 in980.4 mb - 0.00 in0.0 mm 0.00 in0.0 mm
08:00 AM 28.0°F-2.2°C 27.8°F-2.3°C 99% Calm Calm -- 28.96 in980.7 mb - 0.00 in0.0 mm 0.00 in0.0 mm
09:00 AM 28.2°F-2.1°C 28.0°F-2.2°C 99% Calm Calm -- 28.99 in981.7 mb - 0.00 in0.0 mm 0.00 in0.0 mm
10:00 AM 30.2°F-1.0°C 30.0°F-1.1°C 99% Calm Calm -- 29.01 in982.4 mb - 0.00 in0.0 mm 0.00 in0.0 mm
11:00 AM 33.4°F0.8°C 33.1°F0.6°C 99% Calm Calm -- 29.01 in982.4 mb - 0.00 in0.0 mm 0.00 in0.0 mm
12:00 PM 36.0°F2.2°C 35.7°F2.1°C 99% Calm Calm -- 29.00 in982.1 mb - 0.00 in0.0 mm 0.00 in0.0 mm
01:00 PM 39.7°F4.3°C 39.4°F4.1°C 99% Calm Calm -- 28.98 in981.4 mb - 0.09 in2.3 mm 0.09 in2.3 mm
02:00 PM 42.3°F5.7°C 42.0°F5.6°C 99% Calm Calm -- 28.97 in981.0 mb - 0.25 in6.4 mm 0.34 in8.6 mm
03:00 PM 42.1°F5.6°C 41.8°F5.4°C 99% Calm Calm -- 28.96 in980.7 mb - 0.25 in6.4 mm 0.58 in14.7 mm
04:00 PM 40.1°F4.5°C 39.8°F4.3°C 99% Calm Calm -- 28.96 in980.7 mb - 0.14 in3.6 mm 0.72 in18.3 mm
05:00 PM 36.6°F2.6°C 36.3°F2.4°C 99% Calm Calm -- 28.97 in981.0 mb - 0.05 in1.3 mm 0.77 in19.6 mm
06:00 PM 33.3°F0.7°C 33.0°F0.6°C 99% Calm Calm -- 28.96 in980.7 mb - 0.02 in0.5 mm 0.79 in20.1 mm
07:00 PM 31.1°F-0.5°C 30.9°F-0.6°C 99% Calm Calm -- 28.97 in981.0 mb - 0.00 in0.0 mm 0.79 in20.1 mm
08:00 PM 30.6°F-0.8°C 30.4°F-0.9°C 99% Calm Calm -- 28.98 in981.4 mb - 0.01 in0.3 mm 0.80 in20.3 mm
09:00 PM 29.7°F-1.3°C 29.5°F-1.4°C 99% Calm Calm -- 28.99 in981.7 mb - 0.00 in0.0 mm 0.80 in20.3 mm
10:00 PM 29.5°F-1.4°C 29.3°F-1.5°C 99% Calm Calm -- 28.99 in981.7 mb - 0.00 in0.0 mm 0.80 in20.3 mm
11:00 PM 28.6°F-1.9°C 28.4°F-2.0°C 99% Calm Calm -- 28.99 in981.7 mb - 0.00 in0.0 mm 0.80 in20.3 mm